This is the latest recevied weather packets stored in our database for station/object KE8GJZ-2. If no packets are shown the sender has not sent any weather packets the latest 10 day(s).
| Time | Temp. | Humidity | Pressure | Rain* | Wind** | Luminosity | Snow |
|---|---|---|---|---|---|---|---|
| 1778177777 | 11.11° C | 51% | 1013.1 hPa | 0 mm | - | 662 W/m² | - |
| 1778177473 | 10.56° C | 54% | 1013.1 hPa | 0 mm | - | 695 W/m² | - |
| 1778177169 | 10.56° C | 58% | 1013.1 hPa | 0 mm | - | 700 W/m² | - |
| 1778176867 | 10.56° C | 57% | 1013.2 hPa | 0 mm | - | 710 W/m² | - |
| 1778176563 | 10.56° C | 54% | 1013.2 hPa | 0 mm | - | 711 W/m² | - |
| 1778176260 | 10° C | 55% | 1013.2 hPa | 0 mm | - | 714 W/m² | - |
| 1778175957 | 10° C | 56% | 1013.3 hPa | 0 mm | - | 707 W/m² | - |
| 1778175655 | 9.44° C | 57% | 1013.4 hPa | 0 mm | - | 709 W/m² | - |
| 1778175352 | 10° C | 56% | 1013.5 hPa | 0 mm | - | 707 W/m² | - |
| 1778175049 | 10° C | 57% | 1013.5 hPa | 0 mm | - | 692 W/m² | - |
| 1778174744 | 8.89° C | 56% | 1013.6 hPa | 0 mm | - | 693 W/m² | - |
| 1778174442 | 8.89° C | 56% | 1013.8 hPa | 0 mm | - | 682 W/m² | - |
| 1778174137 | 9.44° C | 54% | 1013.7 hPa | 0 mm | - | 678 W/m² | - |
| 1778173835 | 10° C | 55% | 1014 hPa | 0 mm | - | 687 W/m² | - |
| 1778173531 | 10° C | 57% | 1014 hPa | 0 mm | - | 691 W/m² | - |
| 1778173228 | 8.89° C | 56% | 1014.1 hPa | 0 mm | - | 374 W/m² | - |
| 1778172924 | 8.89° C | 55% | 1014.2 hPa | 0 mm | - | 407 W/m² | - |
| 1778172621 | 8.33° C | 56% | 1014.3 hPa | 0 mm | - | 188 W/m² | - |
| 1778172317 | 8.33° C | 55% | 1014.6 hPa | 0 mm | - | 275 W/m² | - |
| 1778172014 | 8.33° C | 60% | 1014.9 hPa | 0 mm | - | 212 W/m² | - |
| 1778171711 | 8.89° C | 56% | 1014.8 hPa | 0 mm | - | 363 W/m² | - |
| 1778171409 | 8.33° C | 55% | 1014.8 hPa | 0 mm | - | 741 W/m² | - |
| 1778171103 | 8.33° C | 55% | 1015.2 hPa | 0 mm | - | 209 W/m² | - |
| 1778170801 | 8.89° C | 53% | 1015 hPa | 0 mm | - | 796 W/m² | - |
| 1778170497 | 8.33° C | 56% | 1015.1 hPa | 0 mm | - | 753 W/m² | - |
* Rain latest hour (hover to see other rain measurements)
** Current wind speed in m/s (hover to see current wind gust speed)